createdAt,value
2023-01-13T00:00:38.462Z,97690.53
2023-01-13T00:03:06.977Z,97675.84
2023-01-13T00:05:35.324Z,97751.91
2023-01-13T00:08:05.054Z,97686.25
2023-01-13T00:10:33.618Z,97744.16
2023-01-13T00:13:05.469Z,97389.25
2023-01-13T00:15:33.972Z,97732.13
2023-01-13T00:18:02.228Z,97728.66
2023-01-13T00:20:30.395Z,97711.31
2023-01-13T00:23:00.188Z,97722.59
2023-01-13T00:25:28.368Z,97731.19
2023-01-13T00:27:56.737Z,97713.03
2023-01-13T00:30:26.338Z,97735.53
2023-01-13T00:32:54.522Z,97731.19
2023-01-13T00:35:22.758Z,97723.44
2023-01-13T00:37:50.997Z,97709.66
2023-01-13T00:40:19.294Z,97726.06
2023-01-13T00:43:05.041Z,97716.53
2023-01-13T00:45:34.679Z,97700.16
2023-01-13T00:48:02.929Z,97701.00
2023-01-13T00:50:31.443Z,97682.81
2023-01-13T00:53:01.481Z,97596.47
2023-01-13T00:55:32.182Z,97714.84
2023-01-13T00:58:03.699Z,97719.09
2023-01-13T01:00:32.126Z,97718.22
2023-01-13T01:03:01.872Z,97713.06
2023-01-13T01:05:30.065Z,97707.03
2023-01-13T01:07:58.359Z,97718.22
2023-01-13T01:10:26.684Z,97596.44
2023-01-13T01:12:54.827Z,97719.13
2023-01-13T01:15:23.037Z,97716.53
2023-01-13T01:17:51.219Z,97713.09
2023-01-13T01:20:20.913Z,97720.91
2023-01-13T01:22:49.130Z,97687.16
2023-01-13T01:25:17.318Z,97726.91
2023-01-13T01:27:45.469Z,97707.88
2023-01-13T01:30:14.862Z,97713.94
2023-01-13T01:32:43.042Z,97707.88
2023-01-13T01:35:11.426Z,97724.28
2023-01-13T01:37:41.077Z,97537.69
2023-01-13T01:40:10.567Z,97589.56
2023-01-13T01:42:56.295Z,97702.75
2023-01-13T01:45:25.857Z,97695.78
2023-01-13T01:47:58.525Z,97689.75
2023-01-13T01:50:27.740Z,97688.91
2023-01-13T01:53:01.821Z,97694.94
2023-01-13T01:55:33.390Z,97700.97
2023-01-13T01:58:09.030Z,97686.31
2023-01-13T02:00:37.630Z,97682.84
2023-01-13T02:03:07.755Z,97672.53
2023-01-13T02:05:36.136Z,97676.81
2023-01-13T02:08:08.338Z,97683.75
2023-01-13T02:10:37.589Z,97667.31
2023-01-13T02:13:08.050Z,97469.63
2023-01-13T02:15:43.681Z,97667.34
2023-01-13T02:18:42.080Z,97669.06
2023-01-13T02:21:45.868Z,97665.63
2023-01-13T02:24:56.435Z,97662.16
2023-01-13T02:28:04.588Z,97647.50
2023-01-13T02:31:03.484Z,97642.31
2023-01-13T02:33:44.458Z,97557.63
2023-01-13T02:36:21.256Z,97644.03
2023-01-13T02:38:55.411Z,97637.16
2023-01-13T02:41:46.760Z,97639.72
2023-01-13T02:44:18.292Z,97632.81
2023-01-13T02:46:54.082Z,97517.13
2023-01-13T02:49:30.030Z,97622.47
2023-01-13T02:52:03.739Z,97588.81
2023-01-13T02:54:35.616Z,97600.88
2023-01-13T02:57:06.541Z,97598.28
2023-01-13T02:59:35.709Z,97630.25
2023-01-13T03:02:08.350Z,97632.84
2023-01-13T03:04:52.114Z,97602.63
2023-01-13T03:07:53.563Z,97615.59
2023-01-13T03:10:33.303Z,97411.13
2023-01-13T03:13:09.195Z,97605.22
2023-01-13T03:15:49.342Z,97605.22
2023-01-13T03:18:35.028Z,97612.13
2023-01-13T03:21:09.069Z,97614.72
2023-01-13T03:23:43.166Z,97604.38
2023-01-13T03:26:17.214Z,97607.81
2023-01-13T03:28:50.546Z,97602.63
2023-01-13T03:31:26.620Z,97612.13
2023-01-13T03:34:00.823Z,97579.31
2023-01-13T03:36:32.735Z,97630.25
2023-01-13T03:39:11.205Z,97668.22
2023-01-13T03:41:43.615Z,97618.19
2023-01-13T03:44:25.451Z,97559.50
2023-01-13T03:47:02.604Z,97625.09
2023-01-13T03:49:39.937Z,97603.50
2023-01-13T03:52:12.785Z,97591.44
2023-01-13T03:54:48.763Z,97601.78
2023-01-13T03:57:19.653Z,97592.28
2023-01-13T03:59:52.407Z,97584.53
2023-01-13T04:02:28.528Z,97586.22
2023-01-13T04:05:01.353Z,97595.72
2023-01-13T04:07:41.399Z,97590.56
2023-01-13T04:10:12.662Z,97603.50
2023-01-13T04:13:05.205Z,97617.28
2023-01-13T04:15:37.711Z,97606.94
2023-01-13T04:18:14.494Z,97607.81
2023-01-13T04:20:45.406Z,97600.91
2023-01-13T04:23:14.145Z,97594.03
2023-01-13T04:25:43.001Z,97543.97
2023-01-13T04:28:12.303Z,97580.22
2023-01-13T04:30:41.694Z,97479.25
2023-01-13T04:33:10.148Z,97508.56
2023-01-13T04:35:39.557Z,97575.88
2023-01-13T04:38:11.299Z,97503.41
2023-01-13T04:40:40.302Z,97575.00
2023-01-13T04:43:09.219Z,97582.78
2023-01-13T04:45:37.529Z,97580.19
2023-01-13T04:48:06.269Z,97573.31
2023-01-13T04:50:34.447Z,97572.44
2023-01-13T04:53:02.611Z,97562.09
2023-01-13T04:55:32.317Z,97542.22
2023-01-13T04:58:04.463Z,97587.09
2023-01-13T05:00:32.836Z,97582.78
2023-01-13T05:03:01.120Z,97585.38
2023-01-13T05:05:30.480Z,97585.41
2023-01-13T05:07:58.677Z,97581.91
2023-01-13T05:10:27.358Z,97538.78
2023-01-13T05:13:14.205Z,97603.50
2023-01-13T05:16:00.944Z,97600.06
2023-01-13T05:18:30.962Z,97587.09
2023-01-13T05:20:59.396Z,97575.03
2023-01-13T05:23:45.185Z,97582.81
2023-01-13T05:26:13.363Z,97576.75
2023-01-13T05:28:42.957Z,97563.81
2023-01-13T05:31:12.323Z,97489.59
2023-01-13T05:33:40.522Z,97579.31
2023-01-13T05:36:09.631Z,97576.75
2023-01-13T05:38:37.809Z,97531.84
2023-01-13T05:41:23.242Z,97565.53
2023-01-13T05:43:52.904Z,97588.84
2023-01-13T05:46:21.139Z,97594.88
2023-01-13T05:48:49.362Z,97593.16
2023-01-13T05:51:17.565Z,97572.41
2023-01-13T05:53:45.804Z,97543.06
2023-01-13T05:56:14.136Z,97571.56
2023-01-13T05:58:42.361Z,97563.78
2023-01-13T06:01:12.241Z,97586.22
2023-01-13T06:03:40.492Z,97560.34
2023-01-13T06:06:09.268Z,97563.81
2023-01-13T06:08:39.719Z,97571.53
2023-01-13T06:11:08.372Z,97587.09
2023-01-13T06:13:36.702Z,97572.44
2023-01-13T06:16:05.388Z,97576.72
2023-01-13T06:18:35.132Z,97574.13
2023-01-13T06:21:03.303Z,97573.28
2023-01-13T06:23:35.410Z,97543.94
2023-01-13T06:26:11.774Z,97567.22
2023-01-13T06:28:40.130Z,97543.06
2023-01-13T06:31:09.955Z,97582.75
2023-01-13T06:33:42.425Z,97559.44
2023-01-13T06:36:15.291Z,97580.19
2023-01-13T06:38:48.030Z,97581.03
2023-01-13T06:41:16.762Z,97578.44
2023-01-13T06:43:44.286Z,97581.91
2023-01-13T06:46:12.490Z,97545.66
2023-01-13T06:48:42.065Z,97593.13
2023-01-13T06:51:10.343Z,97595.72
2023-01-13T06:53:38.606Z,97590.53
2023-01-13T06:56:07.088Z,97590.53
2023-01-13T06:58:35.302Z,97589.69
2023-01-13T07:01:03.668Z,97595.69
2023-01-13T07:03:32.017Z,97561.13
2023-01-13T07:06:02.339Z,97589.66
2023-01-13T07:08:30.531Z,97524.88
2023-01-13T07:10:58.925Z,97596.56
2023-01-13T07:13:44.423Z,97597.41
2023-01-13T07:16:12.719Z,97597.41
2023-01-13T07:18:41.342Z,97596.53
2023-01-13T07:21:13.430Z,97586.22
2023-01-13T07:23:43.140Z,97524.06
2023-01-13T07:26:12.172Z,97572.44
2023-01-13T07:28:41.245Z,97402.47
2023-01-13T07:31:15.824Z,97462.84
2023-01-13T07:33:44.233Z,97582.78
2023-01-13T07:36:14.009Z,97596.59
2023-01-13T07:38:44.753Z,97603.50
2023-01-13T07:41:31.979Z,97495.63
2023-01-13T07:44:00.671Z,97594.00
2023-01-13T07:46:28.867Z,97525.84
2023-01-13T07:49:05.205Z,97555.19
2023-01-13T07:51:36.611Z,97593.13
2023-01-13T07:54:04.889Z,97599.19
2023-01-13T07:56:33.495Z,97554.31
2023-01-13T07:59:01.754Z,97602.66
2023-01-13T08:01:32.146Z,97440.41
2023-01-13T08:04:00.527Z,97424.91
2023-01-13T08:06:30.068Z,97564.66
2023-01-13T08:08:58.260Z,97587.97
2023-01-13T08:11:26.366Z,97584.50
2023-01-13T08:13:58.360Z,97543.09
2023-01-13T08:16:26.780Z,97587.09
2023-01-13T08:18:55.160Z,97548.25
2023-01-13T08:21:23.343Z,97587.94
2023-01-13T08:23:52.897Z,97589.69
2023-01-13T08:26:21.098Z,97601.75
2023-01-13T08:28:49.302Z,97574.16
2023-01-13T08:31:20.095Z,97568.09
2023-01-13T08:33:48.508Z,97581.06
2023-01-13T08:36:18.523Z,97575.84
2023-01-13T08:38:46.813Z,97587.06
2023-01-13T08:41:38.868Z,97549.97
2023-01-13T08:44:09.336Z,97587.91
2023-01-13T08:46:37.963Z,97579.28
2023-01-13T08:49:06.266Z,97583.56
2023-01-13T08:51:34.672Z,97591.34
2023-01-13T08:54:03.400Z,97599.94
2023-01-13T08:56:35.443Z,97329.25
2023-01-13T08:59:04.110Z,97565.38
2023-01-13T09:01:32.384Z,97580.88
2023-01-13T09:04:00.704Z,97593.78
2023-01-13T09:06:28.902Z,97595.50
2023-01-13T09:08:56.970Z,97585.09
2023-01-13T09:11:47.700Z,97567.75
2023-01-13T09:14:20.518Z,97581.47
2023-01-13T09:16:48.955Z,97578.81
2023-01-13T09:19:17.443Z,97548.56
2023-01-13T09:21:45.667Z,97577.78
2023-01-13T09:24:13.858Z,97585.53
2023-01-13T09:26:41.985Z,97576.84
2023-01-13T09:29:10.222Z,97484.59
2023-01-13T09:31:40.566Z,97574.13
2023-01-13T09:34:32.193Z,97566.41
2023-01-13T09:37:00.731Z,97570.50
2023-01-13T09:39:29.016Z,97553.22
2023-01-13T09:42:17.398Z,97565.34
2023-01-13T09:44:53.678Z,97557.50
2023-01-13T09:47:27.026Z,97537.59
2023-01-13T09:50:00.821Z,97546.94
2023-01-13T09:52:29.627Z,97539.94
2023-01-13T09:55:03.930Z,97396.94
2023-01-13T09:57:37.783Z,97526.88
2023-01-13T10:00:13.977Z,97408.84
2023-01-13T10:03:03.498Z,97493.09
2023-01-13T10:05:37.796Z,97507.56
2023-01-13T10:08:13.102Z,97497.22
2023-01-13T10:10:47.418Z,97470.63
2023-01-13T10:13:21.270Z,97478.78
2023-01-13T10:16:16.708Z,97487.38
2023-01-13T10:18:58.542Z,97478.63
2023-01-13T10:21:45.779Z,97480.34
2023-01-13T10:24:21.553Z,97492.50
2023-01-13T10:27:00.431Z,97492.56
2023-01-13T10:29:30.890Z,97490.94
2023-01-13T10:32:00.846Z,97474.56
2023-01-13T10:34:30.875Z,97422.19
2023-01-13T10:37:02.873Z,97465.84
2023-01-13T10:39:41.249Z,97463.09
2023-01-13T10:42:15.802Z,97468.06
2023-01-13T10:44:53.017Z,97465.50
2023-01-13T10:47:27.163Z,97455.78
2023-01-13T10:50:21.122Z,97453.81
2023-01-13T10:53:01.643Z,97453.59
2023-01-13T10:55:33.357Z,97463.03
2023-01-13T10:58:14.223Z,97448.34
2023-01-13T11:00:42.651Z,97452.47
2023-01-13T11:03:19.889Z,97459.31
2023-01-13T11:05:57.130Z,97448.53
2023-01-13T11:08:27.730Z,97418.22
2023-01-13T11:10:57.635Z,97398.16
2023-01-13T11:13:33.760Z,97446.84
2023-01-13T11:16:07.125Z,97449.88
2023-01-13T11:18:51.704Z,97427.19
2023-01-13T11:21:25.798Z,97412.69
2023-01-13T11:24:05.707Z,97398.34
2023-01-13T11:26:45.614Z,97432.72
2023-01-13T11:29:23.700Z,97412.28
2023-01-13T11:31:56.119Z,97433.13
2023-01-13T11:34:32.560Z,97429.78
2023-01-13T11:37:04.961Z,97429.75
2023-01-13T11:39:45.739Z,97427.81
2023-01-13T11:42:22.576Z,97413.72
2023-01-13T11:44:57.959Z,97407.50
2023-01-13T11:47:28.327Z,97403.91
2023-01-13T11:49:57.104Z,97237.47
2023-01-13T11:52:35.085Z,97407.56
2023-01-13T11:55:27.485Z,97375.47
2023-01-13T11:58:15.665Z,97379.16
2023-01-13T12:01:17.291Z,97393.59
2023-01-13T12:03:51.611Z,97372.91
2023-01-13T12:06:26.759Z,97394.84
2023-01-13T12:09:21.401Z,97394.63
2023-01-13T12:12:20.766Z,97381.09
2023-01-13T12:15:23.994Z,97377.19
2023-01-13T12:18:04.880Z,97322.59
2023-01-13T12:20:43.426Z,97367.69
2023-01-13T12:23:22.647Z,97368.38
2023-01-13T12:25:56.183Z,97316.06
2023-01-13T12:28:29.697Z,97303.34
2023-01-13T12:31:01.652Z,97349.63
2023-01-13T12:33:40.407Z,97330.69
2023-01-13T12:36:17.154Z,97350.34
2023-01-13T12:38:49.275Z,97335.28
2023-01-13T12:41:31.570Z,97334.38
2023-01-13T12:44:17.960Z,97325.09
2023-01-13T12:46:53.510Z,97139.88
2023-01-13T12:49:24.824Z,97327.09
2023-01-13T12:52:20.254Z,97330.56
2023-01-13T12:55:19.268Z,97332.41
2023-01-13T12:58:18.723Z,97269.44
2023-01-13T13:01:02.198Z,97330.34
2023-01-13T13:03:33.708Z,97342.13
2023-01-13T13:06:19.806Z,97322.00
2023-01-13T13:09:04.447Z,97342.22
2023-01-13T13:11:56.431Z,97341.44
2023-01-13T13:15:04.383Z,97348.72
2023-01-13T13:17:59.915Z,97343.06
2023-01-13T13:20:57.749Z,97356.97
2023-01-13T13:23:40.356Z,97233.78
2023-01-13T13:26:25.169Z,97351.41
2023-01-13T13:29:29.895Z,97315.31
2023-01-13T13:32:24.533Z,97350.41
2023-01-13T13:35:05.506Z,97378.78
2023-01-13T13:38:05.109Z,97375.25
2023-01-13T13:40:58.453Z,97380.72
2023-01-13T13:43:46.431Z,97394.72
2023-01-13T13:46:46.724Z,97258.25
2023-01-13T13:49:17.705Z,97399.16
2023-01-13T13:51:50.558Z,97393.13
2023-01-13T13:54:21.380Z,97397.63
2023-01-13T13:56:51.440Z,97339.47
2023-01-13T13:59:24.186Z,97399.94
2023-01-13T14:02:01.729Z,97384.50
2023-01-13T14:04:33.712Z,97371.66
2023-01-13T14:07:05.123Z,97382.78
2023-01-13T14:09:43.401Z,97406.47
2023-01-13T14:12:19.903Z,97264.78
2023-01-13T14:14:49.769Z,97273.28
2023-01-13T14:17:25.210Z,97404.84
2023-01-13T14:20:05.093Z,97396.13
2023-01-13T14:22:34.080Z,97394.31
2023-01-13T14:25:02.356Z,97343.97
2023-01-13T14:27:31.885Z,97240.06
2023-01-13T14:30:02.318Z,97347.41
2023-01-13T14:32:36.097Z,97382.66
2023-01-13T14:35:09.605Z,97396.66
2023-01-13T14:37:40.015Z,97395.84
2023-01-13T14:40:28.909Z,97377.06
2023-01-13T14:43:00.774Z,97371.13
2023-01-13T14:45:30.568Z,97264.78
2023-01-13T14:48:10.587Z,97407.31
2023-01-13T14:50:40.219Z,97395.00
2023-01-13T14:53:30.651Z,97361.13
2023-01-13T14:55:59.935Z,97376.81
2023-01-13T14:58:29.775Z,97359.22
2023-01-13T15:01:29.820Z,97384.41
2023-01-13T15:04:19.212Z,97397.81
2023-01-13T15:06:52.945Z,97410.13
2023-01-13T15:09:26.992Z,97389.59
2023-01-13T15:11:56.551Z,97367.19
2023-01-13T15:14:28.130Z,97401.56
2023-01-13T15:16:57.728Z,97404.09
2023-01-13T15:19:25.930Z,97409.28
2023-01-13T15:21:55.579Z,97399.91
2023-01-13T15:24:23.852Z,97424.13
2023-01-13T15:26:52.267Z,97411.34
2023-01-13T15:29:21.680Z,97267.13
2023-01-13T15:31:50.497Z,97418.97
2023-01-13T15:34:18.695Z,97416.41
2023-01-13T15:36:47.028Z,97323.66
2023-01-13T15:39:16.641Z,97413.13
2023-01-13T15:42:02.312Z,97427.91
2023-01-13T15:44:47.815Z,97421.97
2023-01-13T15:47:16.063Z,97414.34
2023-01-13T15:49:46.323Z,97418.75
2023-01-13T15:52:21.575Z,97325.31
2023-01-13T15:54:51.604Z,97422.38
2023-01-13T15:57:23.436Z,97272.00
2023-01-13T15:59:53.077Z,97418.06
2023-01-13T16:02:22.815Z,97422.31
2023-01-13T16:04:54.001Z,97416.38
2023-01-13T16:07:23.802Z,97422.59
2023-01-13T16:09:54.289Z,97409.63
2023-01-13T16:12:22.568Z,97380.53
2023-01-13T16:14:50.752Z,97391.75
2023-01-13T16:17:21.239Z,97425.47
2023-01-13T16:19:49.461Z,97437.53
2023-01-13T16:22:18.742Z,97396.50
2023-01-13T16:24:47.124Z,97436.00
2023-01-13T16:27:18.801Z,97455.97
2023-01-13T16:29:47.949Z,97462.97
2023-01-13T16:32:16.790Z,97447.63
2023-01-13T16:34:45.367Z,97464.81
2023-01-13T16:37:20.708Z,97466.53
2023-01-13T16:39:49.040Z,97470.00
2023-01-13T16:42:18.888Z,97434.81
2023-01-13T16:44:48.531Z,97463.88
2023-01-13T16:47:18.334Z,97470.84
2023-01-13T16:49:47.144Z,97456.13
2023-01-13T16:52:18.497Z,97439.91
2023-01-13T16:54:46.685Z,97477.81
2023-01-13T16:57:15.962Z,97488.19
2023-01-13T16:59:45.618Z,97479.56
2023-01-13T17:02:15.943Z,97482.22
2023-01-13T17:04:44.112Z,97493.53
2023-01-13T17:07:17.917Z,97472.69
2023-01-13T17:09:46.197Z,97504.94
2023-01-13T17:12:14.384Z,97504.22
2023-01-13T17:14:43.564Z,97503.44
2023-01-13T17:17:23.014Z,97503.50
2023-01-13T17:19:51.900Z,97499.19
2023-01-13T17:22:20.387Z,97497.47
2023-01-13T17:24:48.971Z,97500.06
2023-01-13T17:27:18.671Z,97370.16
2023-01-13T17:29:47.599Z,97504.41
2023-01-13T17:32:21.319Z,97505.28
2023-01-13T17:34:49.452Z,97444.09
2023-01-13T17:37:18.135Z,97494.97
2023-01-13T17:39:48.422Z,97513.91
2023-01-13T17:42:16.977Z,97512.22
2023-01-13T17:44:45.386Z,97518.31
2023-01-13T17:47:13.695Z,97516.69
2023-01-13T17:49:43.334Z,97517.53
2023-01-13T17:52:11.613Z,97512.31
2023-01-13T17:54:43.185Z,97507.22
2023-01-13T17:57:11.453Z,97521.00
2023-01-13T17:59:41.517Z,97522.03
2023-01-13T18:02:12.966Z,97550.50
2023-01-13T18:04:43.052Z,97554.84
2023-01-13T18:07:11.348Z,97555.72
2023-01-13T18:09:39.566Z,97554.84
2023-01-13T18:12:08.007Z,97463.47
2023-01-13T18:14:36.422Z,97552.88
2023-01-13T18:17:04.724Z,97538.28
2023-01-13T18:19:50.501Z,97563.41
2023-01-13T18:22:37.677Z,97531.72
2023-01-13T18:25:24.415Z,97565.34
2023-01-13T18:27:52.625Z,97585.28
2023-01-13T18:30:20.975Z,97572.25
2023-01-13T18:32:49.257Z,97580.94
2023-01-13T18:35:17.578Z,97584.41
2023-01-13T18:37:47.259Z,97596.56
2023-01-13T18:40:15.463Z,97589.63
2023-01-13T18:42:51.677Z,97584.38
2023-01-13T18:45:21.017Z,97590.50
2023-01-13T18:47:49.303Z,97580.16
2023-01-13T18:50:18.967Z,97564.63
2023-01-13T18:52:48.702Z,97584.50
2023-01-13T18:55:17.022Z,97565.41
2023-01-13T18:57:45.374Z,97580.88
2023-01-13T19:00:16.794Z,97581.03
2023-01-13T19:02:45.217Z,97589.81
2023-01-13T19:05:13.469Z,97593.31
2023-01-13T19:07:43.501Z,97610.59
2023-01-13T19:10:14.466Z,97615.78
2023-01-13T19:12:42.780Z,97595.13
2023-01-13T19:15:11.923Z,97566.63
2023-01-13T19:17:40.174Z,97604.53
2023-01-13T19:20:09.389Z,97566.50
2023-01-13T19:22:37.660Z,97615.66
2023-01-13T19:25:06.896Z,97597.72
2023-01-13T19:27:36.510Z,97624.56
2023-01-13T19:30:05.183Z,97634.06
2023-01-13T19:32:34.265Z,97641.75
2023-01-13T19:35:02.430Z,97653.91
2023-01-13T19:37:31.651Z,97641.03
2023-01-13T19:40:00.579Z,97675.53
2023-01-13T19:42:46.091Z,97588.50
2023-01-13T19:45:30.837Z,97693.66
2023-01-13T19:48:02.013Z,97683.28
2023-01-13T19:50:30.487Z,97701.38
2023-01-13T19:52:58.934Z,97692.66
2023-01-13T19:55:28.159Z,97698.75
2023-01-13T19:57:56.331Z,97702.09
2023-01-13T20:00:26.152Z,97707.28
2023-01-13T20:02:56.842Z,97710.72
2023-01-13T20:05:26.269Z,97714.25
2023-01-13T20:07:54.601Z,97729.00
2023-01-13T20:10:24.997Z,97735.94
2023-01-13T20:12:53.194Z,97726.44
2023-01-13T20:15:21.481Z,97731.72
2023-01-13T20:17:51.150Z,97739.50
2023-01-13T20:20:20.614Z,97735.19
2023-01-13T20:22:49.775Z,97731.69
2023-01-13T20:25:18.794Z,97742.09
2023-01-13T20:27:48.666Z,97739.50
2023-01-13T20:30:17.345Z,97714.44
2023-01-13T20:32:45.560Z,97748.13
2023-01-13T20:35:15.601Z,97747.28
2023-01-13T20:37:44.245Z,97750.75
2023-01-13T20:40:16.230Z,97644.63
2023-01-13T20:42:45.380Z,97738.63
2023-01-13T20:45:17.605Z,97755.09
2023-01-13T20:47:46.994Z,97750.75
2023-01-13T20:50:18.882Z,97746.41
2023-01-13T20:52:47.717Z,97742.19
2023-01-13T20:55:16.617Z,97744.81
2023-01-13T20:57:48.577Z,97720.63
2023-01-13T21:00:17.803Z,97743.06
2023-01-13T21:02:46.059Z,97745.63
2023-01-13T21:05:14.444Z,97746.50
2023-01-13T21:07:44.077Z,97716.31
2023-01-13T21:10:12.754Z,97746.50
2023-01-13T21:12:58.488Z,97743.97
2023-01-13T21:15:27.564Z,97714.63
2023-01-13T21:18:13.261Z,97748.31
2023-01-13T21:20:41.630Z,97716.44
2023-01-13T21:23:12.100Z,97754.34
2023-01-13T21:25:40.726Z,97750.88
2023-01-13T21:28:11.639Z,97731.13
2023-01-13T21:30:40.508Z,97729.41
2023-01-13T21:33:09.351Z,97770.03
2023-01-13T21:35:40.308Z,97761.34
2023-01-13T21:38:08.608Z,97745.81
2023-01-13T21:40:38.194Z,97724.16
2023-01-13T21:43:23.899Z,97745.72
2023-01-13T21:46:09.461Z,97776.00
2023-01-13T21:48:37.748Z,97771.72
2023-01-13T21:51:06.106Z,97765.66
2023-01-13T21:53:34.360Z,97769.22
2023-01-13T21:56:04.004Z,97770.91
2023-01-13T21:58:32.178Z,97771.78
2023-01-13T22:01:04.008Z,97757.09
2023-01-13T22:03:53.906Z,97775.22
2023-01-13T22:06:22.166Z,97783.03
2023-01-13T22:08:50.463Z,97792.56
2023-01-13T22:11:20.079Z,97794.31
2023-01-13T22:14:05.814Z,97792.56
2023-01-13T22:16:36.265Z,97805.53
2023-01-13T22:19:05.145Z,97774.44
2023-01-13T22:21:33.470Z,97810.75
2023-01-13T22:24:02.818Z,97816.81
2023-01-13T22:26:32.499Z,97822.88
2023-01-13T22:29:02.468Z,97822.03
2023-01-13T22:31:31.796Z,97830.69
2023-01-13T22:34:00.110Z,97829.84
2023-01-13T22:36:28.392Z,97816.00
2023-01-13T22:38:57.291Z,97815.09
2023-01-13T22:41:25.525Z,97800.44
2023-01-13T22:43:55.061Z,97790.06
2023-01-13T22:46:23.779Z,97720.09
2023-01-13T22:48:53.970Z,97804.75
2023-01-13T22:51:22.996Z,97788.34
2023-01-13T22:53:51.318Z,97828.97
2023-01-13T22:56:21.693Z,97607.84
2023-01-13T22:58:53.622Z,97849.75
2023-01-13T23:01:24.351Z,97825.53
2023-01-13T23:03:53.463Z,97858.38
2023-01-13T23:06:25.088Z,97839.38
2023-01-13T23:08:54.855Z,97755.53
2023-01-13T23:11:25.395Z,97848.91
2023-01-13T23:13:58.696Z,97849.75
2023-01-13T23:16:29.988Z,97807.38
2023-01-13T23:18:58.572Z,97845.41
2023-01-13T23:21:29.210Z,97703.66
2023-01-13T23:23:58.735Z,97786.63
2023-01-13T23:26:28.451Z,97835.03
2023-01-13T23:29:00.510Z,97841.06
2023-01-13T23:31:30.399Z,97857.50
2023-01-13T23:33:58.561Z,97855.75
2023-01-13T23:36:28.301Z,97794.31
2023-01-13T23:38:57.075Z,97844.53
2023-01-13T23:41:26.695Z,97870.47
2023-01-13T23:43:56.317Z,97864.41
2023-01-13T23:46:25.057Z,97867.00
2023-01-13T23:48:55.549Z,97872.16
2023-01-13T23:51:25.419Z,97876.50
2023-01-13T23:53:53.536Z,97849.69
2023-01-13T23:56:23.639Z,97883.38
2023-01-13T23:58:52.729Z,97884.25
